| time (UTC) | temp F | wind direction | speed knots | gust knots | rain 1hr in | rain 24hr in | rain mn in | humidity % | barometer mb |
| 20260906050425 | 48 | 328 | 1.7 | 2.6 | 0.01 | 0.11 | 0.06 | 90 | 1006.3 |
| 20260906044819 | 48 | 0 | 0.0 | 0.0 | 0.01 | 0.10 | 0.05 | 1006.1 | |
| 20260906044815 | 48 | 0 | 0.0 | 0.0 | 0.01 | 0.10 | 0.05 | 90 | 1006.1 |
| 20260906043206 | 48 | 0 | 0.0 | 0.0 | 0.01 | 0.10 | 0.05 | 92 | 1005.9 |
| 20260906041505 | 48 | 230 | 0.9 | 0.9 | 0.00 | 0.10 | 0.05 | 91 | 1005.8 |
| 20260906035525 | 48 | 276 | 0.9 | 1.7 | 0.00 | 0.10 | 0.04 | 90 | 1005.7 |
| 20260906033630 | 48 | 258 | 1.7 | 2.6 | 0.01 | 0.11 | 0.04 | 91 | 1005.1 |
| 20260906033625 | 48 | 258 | 1.7 | 2.6 | 0.01 | 0.11 | 0.04 | 91 | 1005.1 |
| 20260906031949 | 48 | 246 | 1.7 | 1.7 | 0.01 | 0.11 | 0.04 | 93 | 1005.0 |
| 20260906030050 | 48 | 0 | 0.0 | 0.0 | 0.01 | 0.10 | 0.03 | 93 | 1004.9 |
| 20260906024450 | 48 | 293 | 3.5 | 4.3 | 0.01 | 0.10 | 0.03 | 93 | 1004.6 |
| 20260906022805 | 48 | 0 | 1.7 | 1.7 | 0.01 | 0.10 | 0.03 | 93 | 1004.3 |
| 20260906021030 | 48 | 350 | 0.9 | 0.9 | 0.01 | 0.10 | 0.02 | 92 | 1004.2 |
| 20260906015100 | 48 | 0 | 0.0 | 0.9 | 0.01 | 0.10 | 0.02 | 93 | 1004.1 |
| 20260906013206 | 48 | 0 | 0.0 | 0.0 | 0.00 | 0.10 | 0.01 | 95 | 1003.9 |
| 20260906011445 | 47 | 310 | 1.7 | 1.7 | 0.00 | 0.10 | 0.01 | 95 | 1003.5 |
| 20260906005846 | 47 | 0 | 0.0 | 0.0 | 0.01 | 0.11 | 0.01 | 96 | 1003.4 |
| 20260906003904 | 47 | 296 | 0.9 | 1.7 | 0.01 | 0.11 | 0.01 | 95 | 1003.3 |
| 20260906002240 | 47 | 266 | 1.7 | 1.7 | 0.00 | 0.11 | 0.00 | 95 | 1003.3 |
| 20260906000315 | 47 | 0 | 0.0 | 0.0 | 0.00 | 0.10 | 0.00 | 95 | 1003.0 |
| 20260905234329 | 48 | 276 | 0.9 | 2.6 | 0.00 | 0.10 | 0.00 | 95 | 1002.6 |
| 20260905234326 | 48 | 276 | 0.9 | 2.6 | 0.00 | 0.10 | 0.00 | 95 | 1002.6 |
| 20260905232727 | 48 | 267 | 0.9 | 1.7 | 0.00 | 0.11 | 0.00 | 94 | 1002.5 |
| 20260905232724 | 48 | 267 | 0.9 | 1.7 | 0.00 | 0.11 | 0.00 | 94 | 1002.5 |
| 20260905232720 | 48 | 267 | 0.9 | 1.7 | 0.00 | 0.11 | 0.00 | 94 | 1002.5 |
| 20260905231125 | 48 | 343 | 0.9 | 0.9 | 0.00 | 0.11 | 0.00 | 95 | 1002.4 |
| 20260905225315 | 49 | 0 | 0.0 | 2.6 | 0.00 | 0.11 | 0.00 | 96 | 1002.3 |
| 20260905223555 | 48 | 346 | 0.9 | 0.9 | 0.00 | 0.11 | 0.00 | 97 | 1002.0 |
| 20260905221645 | 49 | 0 | 0.0 | 0.0 | 0.00 | 0.12 | 0.00 | 98 | 1001.8 |
| 20260905215940 | 49 | 104 | 0.9 | 0.9 | 0.00 | 0.12 | 0.00 | 99 | 1001.8 |
| 20260905214035 | 49 | 0 | 0.0 | 0.0 | 0.00 | 0.12 | 0.00 | 99 | 1001.8 |
| 20260905212255 | 49 | 0 | 0.0 | 0.9 | 0.00 | 0.13 | 0.00 | 99 | 1001.4 |
| 20260905210350 | 50 | 0 | 0.0 | 0.0 | 0.00 | 0.13 | 0.00 | 99 | 1001.3 |
| 20260905204455 | 50 | 0 | 0.0 | 0.0 | 0.00 | 0.14 | 0.13 | 99 | 1000.9 |
| 20260905202730 | 50 | 0 | 0.0 | 0.0 | 0.00 | 0.14 | 0.13 | 99 | 1000.7 |
| 20260905201120 | 50 | 0 | 0.0 | 0.0 | 0.00 | 0.14 | 0.13 | 98 | 1000.4 |
| 20260905195432 | 51 | 0 | 0.0 | 0.0 | 0.01 | 0.00 | 0.13 | 97 | 1000.3 |
| 20260905195430 | 51 | 0 | 0.0 | 0.0 | 0.00 | 0.14 | 0.13 | 97 | 1000.3 |
| 20260905193745 | 51 | 0 | 0.0 | 0.0 | 0.00 | 0.15 | 0.13 | 97 | 1000.2 |
| 20260905192145 | 51 | 0 | 0.0 | 0.0 | 0.00 | 0.15 | 0.13 | 96 | 1000.2 |
| 20260905190145 | 52 | 0 | 0.0 | 0.9 | 0.00 | 0.16 | 0.13 | 93 | 1000.0 |
| 20260905184450 | 53 | 0 | 0.0 | 0.0 | 0.00 | 0.16 | 0.13 | 91 | 999.9 |
| 20260905182510 | 54 | 0 | 0.0 | 0.0 | 0.00 | 0.16 | 0.13 | 89 | 999.6 |
| 20260905180810 | 55 | 10 | 0.9 | 0.9 | 0.00 | 0.17 | 0.13 | 85 | 999.7 |
| 20260905174840 | 56 | 0 | 0.0 | 0.9 | 0.00 | 0.17 | 0.13 | 83 | 999.6 |
| 20260905173000 | 57 | 0 | 0.0 | 0.9 | 0.00 | 0.17 | 0.13 | 80 | 999.1 |
| 20260905171402 | 58 | 109 | 0.9 | 0.9 | 0.00 | 0.18 | 0.13 | 80 | 998.9 |
| 20260905165755 | 59 | 0 | 0.0 | 0.9 | 0.00 | 0.18 | 0.13 | 76 | 998.6 |
| 20260905164055 | 59 | 0 | 0.0 | 0.9 | 0.00 | 0.18 | 0.13 | 71 | 998.4 |
| 20260905162325 | 60 | 269 | 0.9 | 1.7 | 0.00 | 0.19 | 0.13 | 70 | 998.3 |
| 20260905160655 | 59 | 0 | 0.0 | 0.0 | 0.00 | 0.19 | 0.13 | 75 | 998.1 |
| 20260905154822 | 59 | 0 | 0.0 | 0.0 | 0.00 | 0.20 | 0.13 | 74 | 998.2 |
| 20260905154818 | 59 | 0 | 0.0 | 0.0 | 0.00 | 0.20 | 0.13 | 74 | 998.2 |
| 20260905153050 | 59 | 0 | 0.0 | 0.0 | 0.00 | 0.20 | 0.13 | 73 | 997.7 |
| 20260905151410 | 59 | 57 | 0.9 | 0.9 | 0.00 | 0.20 | 0.13 | 78 | 997.7 |
| 20260905145640 | 59 | 0 | 0.0 | 0.9 | 0.00 | 0.20 | 0.13 | 71 | 997.4 |
| 20260905143735 | 59 | 0 | 0.0 | 0.0 | 0.00 | 0.21 | 0.13 | 72 | 997.2 |
| 20260905141920 | 59 | 0 | 0.0 | 0.0 | 0.00 | 0.21 | 0.13 | 74 | 997.2 |
| 20260905140246 | 60 | 0 | 0.0 | 0.0 | 0.00 | 0.21 | 0.13 | 70 | 997.3 |
| 20260905134420 | 60 | 0 | 0.0 | 0.0 | 0.00 | 0.22 | 0.13 | 67 | 996.9 |
| 20260905132535 | 62 | 184 | 1.7 | 1.7 | 0.00 | 0.22 | 0.13 | 64 | 996.8 |
| 20260905130900 | 63 | 247 | 0.9 | 2.6 | 0.00 | 0.22 | 0.13 | 54 | 996.6 |
| 20260905130855 | 63 | 247 | 0.9 | 2.6 | 0.00 | 0.22 | 0.13 | 54 | 996.6 |
| 20260905125235 | 0 | 279 | 0.9 | 2.6 | 0.00 | 0.23 | 0.13 | 53 | 996.7 |
| 20260905125230 | 62 | 279 | 0.9 | 2.6 | 0.00 | 0.23 | 0.13 | 53 | 996.7 |
| 20260905123619 | 60 | 245 | 1.7 | 1.7 | 0.00 | 0.23 | 0.13 | 63 | 996.4 |
| 20260905121955 | 60 | 0 | 0.0 | 0.9 | 0.00 | 0.24 | 0.13 | 65 | 996.4 |
| 20260905120230 | 62 | 345 | 1.7 | 2.6 | 0.00 | 0.24 | 0.13 | 62 | 996.2 |
| 20260905114307 | 60 | 0 | 0.0 | 0.9 | 0.00 | 0.24 | 0.13 | 71 | 996.2 |
| 20260905112538 | 60 | 0 | 0.0 | 0.9 | 0.00 | 0.25 | 0.13 | 67 | 996.5 |
| 20260905110930 | 61 | 254 | 1.7 | 2.6 | 0.00 | 0.35 | 0.13 | 63 | 996.3 |
| 20260905105059 | 59 | 0 | 0.0 | 0.9 | 0.00 | 0.37 | 0.13 | 62 | 996.1 |
| 20260905103411 | 60 | 313 | 1.7 | 1.7 | 0.00 | 0.37 | 0.13 | 67 | 995.9 |
| 20260905101750 | 61 | 320 | 0.9 | 1.7 | 0.00 | 0.37 | 0.13 | 63 | 995.7 |
| 20260905095840 | 60 | 288 | 0.9 | 0.9 | 0.00 | 0.37 | 0.13 | 61 | 995.5 |
| 20260905094020 | 60 | 247 | 0.9 | 0.9 | 0.00 | 0.37 | 0.13 | 66 | 995.4 |
| 20260905092238 | 59 | 312 | 1.7 | 1.7 | 0.00 | 0.37 | 0.00 | 68 | 995.4 |
| 20260905092233 | 59 | 312 | 1.7 | 1.7 | 0.00 | 0.37 | 0.13 | 68 | 995.4 |
| 20260905090514 | 59 | 3 | 0.9 | 0.9 | 0.01 | 0.37 | 0.13 | 69 | 995.4 |
| 20260905084550 | 57 | 71 | 1.7 | 1.7 | 0.01 | 0.37 | 0.13 | 77 | 995.2 |
| 20260905084545 | 57 | 71 | 1.7 | 1.7 | 0.01 | 0.37 | 0.13 | 77 | 995.2 |
| 20260905082548 | 55 | 0 | 0.0 | 0.9 | 0.01 | 0.37 | 0.12 | 85 | 995.3 |
| 20260905080551 | 53 | 180 | 0.9 | 1.7 | 0.01 | 0.36 | 0.12 | 99 | 995.3 |
| 20260905074620 | 51 | 0 | 0.0 | 0.9 | 0.00 | 0.36 | 0.12 | 98 | 995.2 |
| 20260905072820 | 48 | 0 | 0.0 | 0.9 | 0.00 | 0.36 | 0.12 | 99 | 995.1 |
| 20260905070845 | 48 | 0 | 0.0 | 0.9 | 0.00 | 0.36 | 0.11 | 99 | 995.1 |
| 20260905064854 | 46 | 0 | 0.0 | 0.0 | 0.01 | 0.37 | 0.99 | ||
| 20260905064850 | 46 | 0 | 0.0 | 0.0 | 0.01 | 0.37 | 0.11 | 99 | 995.2 |
| 20260905063005 | 45 | 0 | 0.0 | 0.0 | 0.01 | 0.37 | 0.11 | 99 | 994.9 |
| 20260905061009 | 44 | 0 | 0.0 | 0.9 | 0.01 | 0.37 | 0.10 | 99 | 994.9 |
| 20260905055045 | 44 | 0 | 0.0 | 1.7 | 0.01 | 0.36 | 0.10 | 99 | 995.0 |
| 20260905053405 | 44 | 0 | 0.0 | 0.0 | 0.01 | 0.36 | 0.09 | 99 | 994.7 |